createdAt,value
2022-12-25T00:00:53.591Z,1011.38
2022-12-25T00:01:54.629Z,1011.42
2022-12-25T00:02:54.568Z,1011.39
2022-12-25T00:03:54.616Z,1011.39
2022-12-25T00:04:53.190Z,1011.33
2022-12-25T00:05:54.478Z,1011.33
2022-12-25T00:06:54.529Z,1011.35
2022-12-25T00:07:54.549Z,1011.27
2022-12-25T00:08:53.444Z,1011.33
2022-12-25T00:09:54.467Z,1011.33
2022-12-25T00:10:53.403Z,1011.34
2022-12-25T00:11:53.413Z,1011.39
2022-12-25T00:12:53.155Z,1011.41
2022-12-25T00:13:54.438Z,1011.42
2022-12-25T00:14:54.436Z,1011.46
2022-12-25T00:15:53.405Z,1011.45
2022-12-25T00:16:53.341Z,1011.43
2022-12-25T00:17:54.354Z,1011.44
2022-12-25T00:18:54.380Z,1011.42
2022-12-25T00:19:54.504Z,1011.42
2022-12-25T00:20:54.338Z,1011.42
2022-12-25T00:21:53.813Z,1011.41
2022-12-25T00:22:54.313Z,1011.40
2022-12-25T00:23:54.328Z,1011.39
2022-12-25T00:24:54.289Z,1011.38
2022-12-25T00:25:54.303Z,1011.39
2022-12-25T00:26:52.968Z,1011.38
2022-12-25T00:27:52.970Z,1011.35
2022-12-25T00:28:53.098Z,1011.37
2022-12-25T00:29:53.266Z,1011.33
2022-12-25T00:30:53.002Z,1011.30
2022-12-25T00:31:54.382Z,1011.30
2022-12-25T00:32:53.158Z,1011.25
2022-12-25T00:33:52.907Z,1011.24
2022-12-25T00:34:53.136Z,1011.18
2022-12-25T00:35:53.123Z,1011.18
2022-12-25T00:36:53.050Z,1011.24
2022-12-25T00:37:52.841Z,1011.19
2022-12-25T00:38:52.890Z,1011.21
2022-12-25T00:39:53.145Z,1011.16
2022-12-25T00:40:53.099Z,1011.15
2022-12-25T00:41:52.838Z,1011.12
2022-12-25T00:42:54.121Z,1011.08
2022-12-25T00:43:53.082Z,1011.10
2022-12-25T00:44:52.806Z,1011.09
2022-12-25T00:45:52.830Z,1011.05
2022-12-25T00:46:52.843Z,1011.08
2022-12-25T00:47:53.514Z,1011.05
2022-12-25T00:48:52.737Z,1011.05
2022-12-25T00:49:52.704Z,1011.02
2022-12-25T00:50:53.000Z,1011.05
2022-12-25T00:51:52.735Z,1011.07
2022-12-25T00:52:52.965Z,1011.03
2022-12-25T00:53:52.692Z,1011.08
2022-12-25T00:54:52.690Z,1011.07
2022-12-25T00:55:52.669Z,1011.12
2022-12-25T00:56:52.941Z,1011.09
2022-12-25T00:57:52.888Z,1011.16
2022-12-25T00:58:52.914Z,1011.19
2022-12-25T00:59:52.904Z,1011.21
2022-12-25T01:00:52.641Z,1011.18
2022-12-25T01:01:52.828Z,1011.16
2022-12-25T01:02:52.100Z,1011.14
2022-12-25T01:03:52.572Z,1011.08
2022-12-25T01:04:52.582Z,1011.12
2022-12-25T01:05:52.837Z,1011.13
2022-12-25T01:06:52.809Z,1011.12
2022-12-25T01:07:52.018Z,1011.13
2022-12-25T01:08:52.517Z,1011.08
2022-12-25T01:09:52.508Z,1011.10
2022-12-25T01:10:52.792Z,1011.09
2022-12-25T01:11:52.506Z,1011.10
2022-12-25T01:12:52.467Z,1011.04
2022-12-25T01:13:52.448Z,1011.08
2022-12-25T01:14:52.448Z,1011.10
2022-12-25T01:15:52.475Z,1011.11
2022-12-25T01:16:52.564Z,1011.18
2022-12-25T01:17:53.222Z,1011.16
2022-12-25T01:18:52.412Z,1011.21
2022-12-25T01:19:52.392Z,1011.25
2022-12-25T01:20:52.296Z,1011.30
2022-12-25T01:21:52.660Z,1011.26
2022-12-25T01:22:52.376Z,1011.28
2022-12-25T01:23:52.690Z,1011.29
2022-12-25T01:24:52.344Z,1011.28
2022-12-25T01:25:52.341Z,1011.26
2022-12-25T01:26:52.620Z,1011.21
2022-12-25T01:27:51.639Z,1011.21
2022-12-25T01:28:51.637Z,1011.22
2022-12-25T01:29:52.324Z,1011.24
2022-12-25T01:30:52.570Z,1011.23
2022-12-25T01:31:52.273Z,1011.20
2022-12-25T01:32:52.283Z,1011.25
2022-12-25T01:33:51.598Z,1011.21
2022-12-25T01:34:55.930Z,1011.25
2022-12-25T01:35:54.543Z,1011.26
2022-12-25T01:36:52.238Z,1011.25
2022-12-25T01:37:51.655Z,1011.24
2022-12-25T01:38:52.249Z,1011.22
2022-12-25T01:39:52.551Z,1011.28
2022-12-25T01:40:51.587Z,1011.24
2022-12-25T01:41:52.208Z,1011.22
2022-12-25T01:42:52.172Z,1011.18
2022-12-25T01:43:52.162Z,1011.15
2022-12-25T01:44:52.200Z,1011.18
2022-12-25T01:45:52.485Z,1011.17
2022-12-25T01:46:51.457Z,1011.14
2022-12-25T01:47:52.104Z,1011.16
2022-12-25T01:48:52.376Z,1011.17
2022-12-25T01:49:51.548Z,1011.14
2022-12-25T01:50:52.070Z,1011.14
2022-12-25T01:51:51.384Z,1011.17
2022-12-25T01:52:51.432Z,1011.20
2022-12-25T01:53:52.043Z,1011.24
2022-12-25T01:54:52.315Z,1011.29
2022-12-25T01:55:52.278Z,1011.32
2022-12-25T01:56:52.208Z,1011.29
2022-12-25T01:57:52.303Z,1011.30
2022-12-25T01:58:52.192Z,1011.32
2022-12-25T01:59:52.267Z,1011.31
2022-12-25T02:00:51.990Z,1011.31
2022-12-25T02:01:51.564Z,1011.31
2022-12-25T02:02:52.172Z,1011.32
2022-12-25T02:03:51.927Z,1011.25
2022-12-25T02:04:51.284Z,1011.25
2022-12-25T02:05:52.700Z,1011.33
2022-12-25T02:06:52.669Z,1011.27
2022-12-25T02:07:51.901Z,1011.30
2022-12-25T02:08:51.207Z,1011.25
2022-12-25T02:09:51.255Z,1011.33
2022-12-25T02:10:52.126Z,1011.34
2022-12-25T02:11:51.857Z,1011.32
2022-12-25T02:12:51.842Z,1011.30
2022-12-25T02:13:51.832Z,1011.32
2022-12-25T02:14:52.102Z,1011.36
2022-12-25T02:15:51.164Z,1011.27
2022-12-25T02:16:58.053Z,1011.32
2022-12-25T02:17:53.068Z,1011.31
2022-12-25T02:18:51.774Z,1011.34
2022-12-25T02:19:51.749Z,1011.30
2022-12-25T02:20:52.018Z,1011.32
2022-12-25T02:21:51.745Z,1011.29
2022-12-25T02:22:51.988Z,1011.26
2022-12-25T02:23:51.719Z,1011.25
2022-12-25T02:24:51.953Z,1011.25
2022-12-25T02:25:51.770Z,1011.28
2022-12-25T02:26:51.740Z,1011.24
2022-12-25T02:27:51.680Z,1011.23
2022-12-25T02:28:51.021Z,1011.26
2022-12-25T02:29:51.967Z,1011.25
2022-12-25T02:30:51.904Z,1011.24
2022-12-25T02:31:51.976Z,1011.25
2022-12-25T02:32:51.621Z,1011.17
2022-12-25T02:33:51.609Z,1011.25
2022-12-25T02:34:51.603Z,1011.20
2022-12-25T02:35:51.855Z,1011.16
2022-12-25T02:36:51.847Z,1011.15
2022-12-25T02:37:51.843Z,1011.16
2022-12-25T02:38:51.564Z,1011.20
2022-12-25T02:39:51.556Z,1011.15
2022-12-25T02:40:51.808Z,1011.16
2022-12-25T02:41:51.536Z,1011.22
2022-12-25T02:42:51.513Z,1011.19
2022-12-25T02:43:51.494Z,1011.16
2022-12-25T02:44:51.174Z,1011.18
2022-12-25T02:45:51.325Z,1011.17
2022-12-25T02:46:51.744Z,1011.18
2022-12-25T02:47:51.465Z,1011.23
2022-12-25T02:48:51.458Z,1011.21
2022-12-25T02:49:51.746Z,1011.22
2022-12-25T02:50:51.433Z,1011.26
2022-12-25T02:51:51.665Z,1011.22
2022-12-25T02:52:51.420Z,1011.20
2022-12-25T02:53:50.757Z,1011.25
2022-12-25T02:54:50.763Z,1011.22
2022-12-25T02:55:51.692Z,1011.28
2022-12-25T02:56:51.359Z,1011.23
2022-12-25T02:57:51.617Z,1011.25
2022-12-25T02:58:51.614Z,1011.28
2022-12-25T02:59:51.338Z,1011.30
2022-12-25T03:00:51.360Z,1011.30
2022-12-25T03:01:51.850Z,1011.35
2022-12-25T03:02:50.703Z,1011.35
2022-12-25T03:03:51.544Z,1011.34
2022-12-25T03:04:51.520Z,1011.33
2022-12-25T03:05:51.268Z,1011.30
2022-12-25T03:06:51.249Z,1011.25
2022-12-25T03:07:51.264Z,1011.25
2022-12-25T03:08:51.240Z,1011.24
2022-12-25T03:09:51.494Z,1011.20
2022-12-25T03:10:51.210Z,1011.17
2022-12-25T03:11:51.470Z,1011.18
2022-12-25T03:12:51.192Z,1011.17
2022-12-25T03:13:51.506Z,1011.12
2022-12-25T03:14:50.493Z,1011.11
2022-12-25T03:15:50.490Z,1011.15
2022-12-25T03:16:51.450Z,1011.15
2022-12-25T03:17:50.462Z,1011.17
2022-12-25T03:18:50.453Z,1011.21
2022-12-25T03:19:51.114Z,1011.19
2022-12-25T03:20:51.111Z,1011.20
2022-12-25T03:21:51.092Z,1011.20
2022-12-25T03:22:51.107Z,1011.20
2022-12-25T03:23:51.372Z,1011.22
2022-12-25T03:24:50.403Z,1011.21
2022-12-25T03:25:51.155Z,1011.17
2022-12-25T03:26:51.112Z,1011.20
2022-12-25T03:27:50.354Z,1011.14
2022-12-25T03:28:51.025Z,1011.14
2022-12-25T03:29:51.299Z,1011.17
2022-12-25T03:30:51.043Z,1011.21
2022-12-25T03:31:50.368Z,1011.15
2022-12-25T03:32:59.728Z,1011.13
2022-12-25T03:33:51.221Z,1011.15
2022-12-25T03:34:51.210Z,1011.11
2022-12-25T03:35:51.211Z,1011.09
2022-12-25T03:36:51.213Z,1010.99
2022-12-25T03:37:50.911Z,1011.03
2022-12-25T03:38:51.177Z,1011.01
2022-12-25T03:39:51.152Z,1011.02
2022-12-25T03:40:51.141Z,1011.06
2022-12-25T03:41:50.889Z,1011.00
2022-12-25T03:42:51.125Z,1011.02
2022-12-25T03:43:50.205Z,1011.02
2022-12-25T03:44:50.198Z,1011.00
2022-12-25T03:45:51.120Z,1010.96
2022-12-25T03:46:50.820Z,1010.94
2022-12-25T03:47:50.811Z,1010.93
2022-12-25T03:48:50.808Z,1010.90
2022-12-25T03:49:51.157Z,1010.84
2022-12-25T03:50:51.034Z,1010.86
2022-12-25T03:51:51.032Z,1010.83
2022-12-25T03:52:51.013Z,1010.76
2022-12-25T03:53:50.754Z,1010.79
2022-12-25T03:54:50.744Z,1010.75
2022-12-25T03:55:50.723Z,1010.77
2022-12-25T03:56:50.964Z,1010.71
2022-12-25T03:57:50.969Z,1010.72
2022-12-25T03:58:50.952Z,1010.65
2022-12-25T03:59:50.686Z,1010.58
2022-12-25T04:00:50.940Z,1010.62
2022-12-25T04:01:50.806Z,1010.60
2022-12-25T04:02:51.036Z,1010.59
2022-12-25T04:03:51.021Z,1010.53
2022-12-25T04:04:50.888Z,1010.47
2022-12-25T04:05:50.627Z,1010.42
2022-12-25T04:06:50.875Z,1010.38
2022-12-25T04:07:50.967Z,1010.37
2022-12-25T04:08:50.858Z,1010.37
2022-12-25T04:09:50.567Z,1010.40
2022-12-25T04:10:50.828Z,1010.44
2022-12-25T04:11:50.554Z,1010.53
2022-12-25T04:12:50.792Z,1010.53
2022-12-25T04:13:50.799Z,1010.51
2022-12-25T04:14:50.792Z,1010.50
2022-12-25T04:15:50.558Z,1010.51
2022-12-25T04:16:50.744Z,1010.45
2022-12-25T04:17:50.492Z,1010.48
2022-12-25T04:18:50.756Z,1010.47
2022-12-25T04:19:50.732Z,1010.50
2022-12-25T04:20:50.700Z,1010.52
2022-12-25T04:21:50.684Z,1010.53
2022-12-25T04:22:50.672Z,1010.50
2022-12-25T04:23:50.672Z,1010.50
2022-12-25T04:24:50.420Z,1010.46
2022-12-25T04:25:50.652Z,1010.49
2022-12-25T04:26:50.630Z,1010.46
2022-12-25T04:27:50.614Z,1010.48
2022-12-25T04:28:50.380Z,1010.49
2022-12-25T04:29:50.604Z,1010.50
2022-12-25T04:30:50.743Z,1010.48
2022-12-25T04:31:50.587Z,1010.46
2022-12-25T04:32:50.577Z,1010.47
2022-12-25T04:33:50.326Z,1010.52
2022-12-25T04:34:50.314Z,1010.43
2022-12-25T04:35:50.302Z,1010.38
2022-12-25T04:36:50.305Z,1010.43
2022-12-25T04:37:50.531Z,1010.39
2022-12-25T04:38:50.263Z,1010.39
2022-12-25T04:39:50.493Z,1010.48
2022-12-25T04:40:50.244Z,1010.47
2022-12-25T04:41:50.483Z,1010.47
2022-12-25T04:42:50.515Z,1010.52
2022-12-25T04:43:50.446Z,1010.50
2022-12-25T04:44:50.437Z,1010.44
2022-12-25T04:45:50.194Z,1010.46
2022-12-25T04:46:50.315Z,1010.48
2022-12-25T04:47:50.405Z,1010.56
2022-12-25T04:48:50.415Z,1010.66
2022-12-25T04:49:50.176Z,1010.64
2022-12-25T04:50:50.385Z,1010.63
2022-12-25T04:51:50.396Z,1010.63
2022-12-25T04:52:50.352Z,1010.61
2022-12-25T04:53:50.099Z,1010.62
2022-12-25T04:54:50.364Z,1010.61
2022-12-25T04:55:50.319Z,1010.62
2022-12-25T04:56:50.319Z,1010.59
2022-12-25T04:57:50.309Z,1010.57
2022-12-25T04:58:50.308Z,1010.65
2022-12-25T04:59:50.279Z,1010.63
2022-12-25T05:00:50.023Z,1010.58
2022-12-25T05:01:50.350Z,1010.58
2022-12-25T05:02:50.536Z,1010.55
2022-12-25T05:03:49.366Z,1010.60
2022-12-25T05:04:49.988Z,1010.60
2022-12-25T05:05:49.318Z,1010.64
2022-12-25T05:06:49.974Z,1010.69
2022-12-25T05:07:49.989Z,1010.70
2022-12-25T05:08:50.204Z,1010.69
2022-12-25T05:09:49.939Z,1010.70
2022-12-25T05:10:49.930Z,1010.72
2022-12-25T05:11:50.160Z,1010.69
2022-12-25T05:12:50.208Z,1010.68
2022-12-25T05:13:49.897Z,1010.72
2022-12-25T05:14:50.143Z,1010.72
2022-12-25T05:15:50.173Z,1010.73
2022-12-25T05:16:49.180Z,1010.74
2022-12-25T05:17:49.850Z,1010.72
2022-12-25T05:18:50.115Z,1010.69
2022-12-25T05:19:50.071Z,1010.68
2022-12-25T05:20:49.841Z,1010.69
2022-12-25T05:21:49.138Z,1010.69
2022-12-25T05:22:49.802Z,1010.73
2022-12-25T05:23:49.215Z,1010.72
2022-12-25T05:24:49.781Z,1010.73
2022-12-25T05:25:49.780Z,1010.78
2022-12-25T05:26:49.764Z,1010.77
2022-12-25T05:27:53.858Z,1010.79
2022-12-25T05:28:49.981Z,1010.73
2022-12-25T05:29:49.994Z,1010.74
2022-12-25T05:30:50.038Z,1010.69
2022-12-25T05:31:50.038Z,1010.66
2022-12-25T05:32:49.710Z,1010.62
2022-12-25T05:33:49.683Z,1010.60
2022-12-25T05:34:49.672Z,1010.52
2022-12-25T05:35:49.948Z,1010.51
2022-12-25T05:36:49.906Z,1010.49
2022-12-25T05:37:49.643Z,1010.48
2022-12-25T05:38:49.633Z,1010.50
2022-12-25T05:39:49.895Z,1010.48
2022-12-25T05:40:49.891Z,1010.49
2022-12-25T05:41:49.599Z,1010.49
2022-12-25T05:42:49.588Z,1010.50
2022-12-25T05:43:49.849Z,1010.49
2022-12-25T05:44:49.556Z,1010.49
2022-12-25T05:45:49.546Z,1010.48
2022-12-25T05:46:49.825Z,1010.52
2022-12-25T05:47:49.897Z,1010.47
2022-12-25T05:48:49.777Z,1010.49
2022-12-25T05:49:49.797Z,1010.47
2022-12-25T05:50:49.500Z,1010.47
2022-12-25T05:51:48.797Z,1010.42
2022-12-25T05:52:49.711Z,1010.42
2022-12-25T05:53:49.758Z,1010.43
2022-12-25T05:54:49.479Z,1010.40
2022-12-25T05:55:49.740Z,1010.33
2022-12-25T05:56:49.441Z,1010.29
2022-12-25T05:57:49.418Z,1010.30
2022-12-25T05:58:49.680Z,1010.22
2022-12-25T05:59:48.775Z,1010.22
2022-12-25T06:00:49.414Z,1010.23
2022-12-25T06:01:49.745Z,1010.27
2022-12-25T06:02:49.055Z,1010.22
2022-12-25T06:03:49.639Z,1010.24
2022-12-25T06:04:49.352Z,1010.26
2022-12-25T06:05:48.711Z,1010.24
2022-12-25T06:06:48.674Z,1010.23
2022-12-25T06:07:49.310Z,1010.18
2022-12-25T06:08:48.646Z,1010.22
2022-12-25T06:09:49.313Z,1010.17
2022-12-25T06:10:49.286Z,1010.17
2022-12-25T06:11:49.259Z,1010.17
2022-12-25T06:12:49.293Z,1010.16
2022-12-25T06:13:49.280Z,1010.17
2022-12-25T06:14:51.446Z,1010.18
2022-12-25T06:15:49.390Z,1010.18
2022-12-25T06:16:49.531Z,1010.18
2022-12-25T06:17:50.244Z,1010.18
2022-12-25T06:18:49.478Z,1010.23
2022-12-25T06:19:48.570Z,1010.23
2022-12-25T06:20:49.950Z,1010.23
2022-12-25T06:21:49.433Z,1010.27
2022-12-25T06:22:49.151Z,1010.27
2022-12-25T06:23:48.563Z,1010.24
2022-12-25T06:24:49.133Z,1010.23
2022-12-25T06:25:49.117Z,1010.21
2022-12-25T06:26:48.444Z,1010.16
2022-12-25T06:27:49.095Z,1010.19
2022-12-25T06:28:49.350Z,1010.20
2022-12-25T06:29:48.415Z,1010.21
2022-12-25T06:30:49.055Z,1010.21
2022-12-25T06:31:49.155Z,1010.18
2022-12-25T06:32:49.283Z,1010.13
2022-12-25T06:33:48.425Z,1010.17
2022-12-25T06:34:49.305Z,1010.11
2022-12-25T06:35:49.005Z,1010.10
2022-12-25T06:36:48.999Z,1010.08
2022-12-25T06:37:48.987Z,1010.06
2022-12-25T06:38:49.262Z,1010.04
2022-12-25T06:39:48.967Z,1010.06
2022-12-25T06:40:49.209Z,1010.07
2022-12-25T06:41:48.930Z,1010.06
2022-12-25T06:42:48.945Z,1010.05
2022-12-25T06:43:49.194Z,1010.03
2022-12-25T06:44:49.172Z,1010.04
2022-12-25T06:45:49.206Z,1010.01
2022-12-25T06:46:49.158Z,1009.98
2022-12-25T06:47:48.870Z,1009.95
2022-12-25T06:48:48.195Z,1009.94
2022-12-25T06:49:48.188Z,1009.90
2022-12-25T06:50:48.179Z,1009.91
2022-12-25T06:51:48.840Z,1009.90
2022-12-25T06:52:49.099Z,1009.90
2022-12-25T06:53:48.802Z,1009.89
2022-12-25T06:54:49.555Z,1009.87
2022-12-25T06:55:48.789Z,1009.84
2022-12-25T06:56:48.782Z,1009.81
2022-12-25T06:57:48.770Z,1009.86
2022-12-25T06:58:48.760Z,1009.82
2022-12-25T06:59:54.754Z,1009.81
2022-12-25T07:00:49.816Z,1009.74
2022-12-25T07:01:48.969Z,1009.77
2022-12-25T07:02:48.157Z,1009.70
2022-12-25T07:03:48.709Z,1009.72
2022-12-25T07:04:48.698Z,1009.68
2022-12-25T07:05:48.013Z,1009.64
2022-12-25T07:06:48.001Z,1009.56
2022-12-25T07:07:48.670Z,1009.56
2022-12-25T07:08:48.657Z,1009.50
2022-12-25T07:09:47.966Z,1009.49
2022-12-25T07:10:48.634Z,1009.52
2022-12-25T07:11:48.614Z,1009.49
2022-12-25T07:12:48.604Z,1009.53
2022-12-25T07:13:48.855Z,1009.59
2022-12-25T07:14:48.877Z,1009.60
2022-12-25T07:15:48.575Z,1009.63
2022-12-25T07:16:48.647Z,1009.56
2022-12-25T07:17:47.904Z,1009.52
2022-12-25T07:18:47.909Z,1009.56
2022-12-25T07:19:48.827Z,1009.61
2022-12-25T07:20:48.527Z,1009.62
2022-12-25T07:21:48.522Z,1009.66
2022-12-25T07:22:48.512Z,1009.75
2022-12-25T07:23:48.507Z,1009.74
2022-12-25T07:24:48.756Z,1009.76
2022-12-25T07:25:48.475Z,1009.78
2022-12-25T07:26:47.786Z,1009.75
2022-12-25T07:27:48.447Z,1009.77
2022-12-25T07:28:48.447Z,1009.77
2022-12-25T07:29:48.707Z,1009.75
2022-12-25T07:30:48.417Z,1009.73
2022-12-25T07:31:48.712Z,1009.67
2022-12-25T07:32:50.372Z,1009.68
2022-12-25T07:33:48.627Z,1009.55
2022-12-25T07:34:48.638Z,1009.54
2022-12-25T07:35:48.618Z,1009.43
2022-12-25T07:36:48.617Z,1009.42
2022-12-25T07:37:48.348Z,1009.48
2022-12-25T07:38:48.347Z,1009.48
2022-12-25T07:39:48.329Z,1009.45
2022-12-25T07:40:47.629Z,1009.49
2022-12-25T07:41:48.314Z,1009.44
2022-12-25T07:42:49.032Z,1009.49
2022-12-25T07:43:48.551Z,1009.49
2022-12-25T07:44:48.570Z,1009.44
2022-12-25T07:45:48.285Z,1009.44
2022-12-25T07:46:48.529Z,1009.44
2022-12-25T07:47:48.562Z,1009.45
2022-12-25T07:48:48.502Z,1009.43
2022-12-25T07:49:48.492Z,1009.47
2022-12-25T07:50:48.216Z,1009.45
2022-12-25T07:51:48.202Z,1009.43
2022-12-25T07:52:48.482Z,1009.47
2022-12-25T07:53:48.515Z,1009.52
2022-12-25T07:54:48.444Z,1009.56
2022-12-25T07:55:48.422Z,1009.53
2022-12-25T07:56:48.150Z,1009.57
2022-12-25T07:57:48.452Z,1009.55
2022-12-25T07:58:48.461Z,1009.54
2022-12-25T07:59:48.457Z,1009.56
2022-12-25T08:00:48.186Z,1009.55
2022-12-25T08:01:48.524Z,1009.65
2022-12-25T08:02:48.281Z,1009.62
2022-12-25T08:03:48.478Z,1009.62
2022-12-25T08:04:48.333Z,1009.61
2022-12-25T08:05:48.061Z,1009.64
2022-12-25T08:06:48.045Z,1009.63
2022-12-25T08:07:52.407Z,1009.62
2022-12-25T08:08:50.687Z,1009.58
2022-12-25T08:09:48.290Z,1009.61
2022-12-25T08:10:48.328Z,1009.61
2022-12-25T08:11:47.908Z,1009.65
2022-12-25T08:12:47.985Z,1009.72
2022-12-25T08:13:47.979Z,1009.68
2022-12-25T08:14:47.961Z,1009.65
2022-12-25T08:15:48.205Z,1009.72
2022-12-25T08:16:47.992Z,1009.67
2022-12-25T08:17:48.199Z,1009.64
2022-12-25T08:18:48.172Z,1009.64
2022-12-25T08:19:47.908Z,1009.63
2022-12-25T08:20:48.166Z,1009.62
2022-12-25T08:21:47.875Z,1009.58
2022-12-25T08:22:48.137Z,1009.54
2022-12-25T08:23:48.153Z,1009.49
2022-12-25T08:24:48.111Z,1009.46
2022-12-25T08:25:47.836Z,1009.51
2022-12-25T08:26:48.101Z,1009.48
2022-12-25T08:27:48.098Z,1009.52
2022-12-25T08:28:47.479Z,1009.59
2022-12-25T08:29:48.087Z,1009.60
2022-12-25T08:30:48.074Z,1009.61
2022-12-25T08:31:47.810Z,1009.62
2022-12-25T08:32:47.767Z,1009.67
2022-12-25T08:33:47.762Z,1009.72
2022-12-25T08:34:48.029Z,1009.70
2022-12-25T08:35:48.060Z,1009.69
2022-12-25T08:36:48.029Z,1009.70
2022-12-25T08:37:47.970Z,1009.70
2022-12-25T08:38:47.971Z,1009.67
2022-12-25T08:39:47.949Z,1009.67
2022-12-25T08:40:47.945Z,1009.68
2022-12-25T08:41:47.660Z,1009.72
2022-12-25T08:42:47.921Z,1009.65
2022-12-25T08:43:47.900Z,1009.68
2022-12-25T08:44:47.910Z,1009.69
2022-12-25T08:45:47.934Z,1009.67
2022-12-25T08:46:48.613Z,1009.61
2022-12-25T08:47:47.884Z,1009.58
2022-12-25T08:48:47.625Z,1009.62
2022-12-25T08:49:47.028Z,1009.61
2022-12-25T08:50:47.852Z,1009.63
2022-12-25T08:51:47.569Z,1009.66
2022-12-25T08:52:47.568Z,1009.71
2022-12-25T08:53:47.536Z,1009.79
2022-12-25T08:54:47.815Z,1009.83
2022-12-25T08:55:47.546Z,1009.93
2022-12-25T08:56:47.510Z,1009.96
2022-12-25T08:57:47.496Z,1010.03
2022-12-25T08:58:47.495Z,1010.05
2022-12-25T08:59:47.487Z,1010.06
2022-12-25T09:00:47.683Z,1010.05
2022-12-25T09:01:47.588Z,1010.02
2022-12-25T09:02:47.557Z,1010.00
2022-12-25T09:03:46.774Z,1010.01
2022-12-25T09:04:47.439Z,1009.91
2022-12-25T09:05:46.776Z,1009.88
2022-12-25T09:06:47.655Z,1009.84
2022-12-25T09:07:47.387Z,1009.79
2022-12-25T09:08:49.544Z,1009.76
2022-12-25T09:09:48.116Z,1009.75
2022-12-25T09:10:46.707Z,1009.71
2022-12-25T09:11:47.346Z,1009.73
2022-12-25T09:12:47.337Z,1009.66
2022-12-25T09:13:47.337Z,1009.63
2022-12-25T09:14:46.637Z,1009.61
2022-12-25T09:15:47.506Z,1009.54
2022-12-25T09:16:47.289Z,1009.48
2022-12-25T09:17:46.764Z,1009.47
2022-12-25T09:18:48.049Z,1009.43
2022-12-25T09:19:47.264Z,1009.37
2022-12-25T09:20:47.251Z,1009.33
2022-12-25T09:21:47.240Z,1009.33
2022-12-25T09:22:47.478Z,1009.33
2022-12-25T09:23:47.235Z,1009.32
2022-12-25T09:24:47.229Z,1009.41
2022-12-25T09:25:47.469Z,1009.41
2022-12-25T09:26:46.490Z,1009.43
2022-12-25T09:27:46.506Z,1009.41
2022-12-25T09:28:51.845Z,1009.39
2022-12-25T09:29:48.231Z,1009.38
2022-12-25T09:30:48.396Z,1009.37
2022-12-25T09:31:48.382Z,1009.29
2022-12-25T09:32:46.431Z,1009.24
2022-12-25T09:33:47.116Z,1009.20
2022-12-25T09:34:47.118Z,1009.16
2022-12-25T09:35:47.089Z,1009.16
2022-12-25T09:36:47.085Z,1009.16
2022-12-25T09:37:46.447Z,1009.18
2022-12-25T09:38:47.823Z,1009.22
2022-12-25T09:39:47.053Z,1009.25
2022-12-25T09:40:47.055Z,1009.29
2022-12-25T09:41:48.353Z,1009.33
2022-12-25T09:42:47.282Z,1009.40
2022-12-25T09:43:47.008Z,1009.47
2022-12-25T09:44:46.988Z,1009.49
2022-12-25T09:45:47.313Z,1009.50
2022-12-25T09:46:47.039Z,1009.52
2022-12-25T09:47:46.431Z,1009.48
2022-12-25T09:48:47.204Z,1009.51
2022-12-25T09:49:46.954Z,1009.53
2022-12-25T09:50:46.955Z,1009.52
2022-12-25T09:51:46.924Z,1009.46
2022-12-25T09:52:46.896Z,1009.47
2022-12-25T09:53:47.240Z,1009.47
2022-12-25T09:54:47.161Z,1009.47
2022-12-25T09:55:47.182Z,1009.49
2022-12-25T09:56:46.901Z,1009.46
2022-12-25T09:57:46.846Z,1009.48
2022-12-25T09:58:46.862Z,1009.45
2022-12-25T09:59:46.926Z,1009.45
2022-12-25T10:00:46.913Z,1009.38
2022-12-25T10:01:47.266Z,1009.26
2022-12-25T10:02:46.961Z,1009.23
2022-12-25T10:03:47.177Z,1009.20
2022-12-25T10:04:47.040Z,1009.17
2022-12-25T10:05:47.091Z,1009.17
2022-12-25T10:06:46.088Z,1009.19
2022-12-25T10:07:47.017Z,1009.26
2022-12-25T10:08:46.749Z,1009.34
2022-12-25T10:09:46.959Z,1009.35
2022-12-25T10:10:46.706Z,1009.39
2022-12-25T10:11:46.703Z,1009.40
2022-12-25T10:12:46.939Z,1009.42
2022-12-25T10:13:46.680Z,1009.44
2022-12-25T10:14:46.680Z,1009.41
2022-12-25T10:15:46.699Z,1009.44
2022-12-25T10:16:45.967Z,1009.46
2022-12-25T10:17:47.033Z,1009.51
2022-12-25T10:18:46.621Z,1009.54
2022-12-25T10:19:46.609Z,1009.56
2022-12-25T10:20:46.624Z,1009.52
2022-12-25T10:21:45.955Z,1009.47
2022-12-25T10:22:45.966Z,1009.38
2022-12-25T10:23:46.860Z,1009.33
2022-12-25T10:24:45.900Z,1009.27
2022-12-25T10:25:46.558Z,1009.24
2022-12-25T10:26:45.901Z,1009.25
2022-12-25T10:27:45.870Z,1009.32
2022-12-25T10:28:46.515Z,1009.33
2022-12-25T10:29:45.872Z,1009.38
2022-12-25T10:30:45.915Z,1009.46
2022-12-25T10:31:45.817Z,1009.41
2022-12-25T10:32:45.815Z,1009.41
2022-12-25T10:33:46.477Z,1009.28
2022-12-25T10:34:46.452Z,1009.24
2022-12-25T10:35:46.537Z,1009.23
2022-12-25T10:36:46.699Z,1009.22
2022-12-25T10:37:47.678Z,1009.24
2022-12-25T10:38:45.724Z,1009.29
2022-12-25T10:39:47.210Z,1009.30
2022-12-25T10:40:46.390Z,1009.26
2022-12-25T10:41:47.177Z,1009.20
2022-12-25T10:42:46.370Z,1009.22
2022-12-25T10:43:54.231Z,1009.15
2022-12-25T10:44:46.350Z,1009.11
2022-12-25T10:45:54.163Z,1009.11
2022-12-25T10:46:46.389Z,1009.03
2022-12-25T10:47:46.304Z,1009.05
2022-12-25T10:48:45.641Z,1009.03
2022-12-25T10:49:46.588Z,1009.01
2022-12-25T10:50:46.554Z,1009.05
2022-12-25T10:51:45.605Z,1009.05
2022-12-25T10:52:45.601Z,1009.11
2022-12-25T10:53:45.650Z,1009.12
2022-12-25T10:54:46.560Z,1009.11
2022-12-25T10:55:46.226Z,1009.06
2022-12-25T10:56:45.566Z,1009.00
2022-12-25T10:57:46.495Z,1008.97
2022-12-25T10:58:46.193Z,1008.93
2022-12-25T10:59:46.257Z,1008.92
2022-12-25T11:00:46.476Z,1008.95
2022-12-25T11:01:51.167Z,1009.00
2022-12-25T11:02:49.386Z,1009.08
2022-12-25T11:03:46.166Z,1009.04
2022-12-25T11:04:46.124Z,1009.01
2022-12-25T11:05:45.531Z,1008.97
2022-12-25T11:06:46.107Z,1008.92
2022-12-25T11:07:47.369Z,1008.89
2022-12-25T11:08:46.081Z,1008.85
2022-12-25T11:09:46.329Z,1008.85
2022-12-25T11:10:46.357Z,1008.83
2022-12-25T11:11:46.448Z,1008.81
2022-12-25T11:12:46.045Z,1008.82
2022-12-25T11:13:47.433Z,1008.80
2022-12-25T11:14:46.020Z,1008.77
2022-12-25T11:15:46.067Z,1008.74
2022-12-25T11:16:46.035Z,1008.77
2022-12-25T11:17:45.370Z,1008.78
2022-12-25T11:18:46.287Z,1008.72
2022-12-25T11:19:45.960Z,1008.65
2022-12-25T11:20:47.309Z,1008.64
2022-12-25T11:21:46.240Z,1008.61
2022-12-25T11:22:45.341Z,1008.71
2022-12-25T11:23:45.898Z,1008.81
2022-12-25T11:24:45.903Z,1008.72
2022-12-25T11:25:45.908Z,1008.65
2022-12-25T11:26:46.165Z,1008.53
2022-12-25T11:27:50.345Z,1008.50
2022-12-25T11:28:46.268Z,1008.49
2022-12-25T11:29:45.884Z,1008.54
2022-12-25T11:30:46.135Z,1008.53
2022-12-25T11:31:45.890Z,1008.50
2022-12-25T11:32:45.194Z,1008.50
2022-12-25T11:33:45.825Z,1008.46
2022-12-25T11:34:46.167Z,1008.45
2022-12-25T11:35:45.889Z,1008.48
2022-12-25T11:36:45.803Z,1008.34
2022-12-25T11:37:46.637Z,1008.32
2022-12-25T11:38:45.760Z,1008.21
2022-12-25T11:39:45.744Z,1008.22
2022-12-25T11:40:45.825Z,1008.19
2022-12-25T11:41:45.884Z,1008.08
2022-12-25T11:42:45.732Z,1008.09
2022-12-25T11:43:45.774Z,1008.08
2022-12-25T11:44:46.024Z,1008.11
2022-12-25T11:45:45.959Z,1008.09
2022-12-25T11:46:46.220Z,1008.08
2022-12-25T11:47:45.679Z,1008.08
2022-12-25T11:48:45.756Z,1008.04
2022-12-25T11:49:50.080Z,1008.02
2022-12-25T11:50:45.947Z,1008.02
2022-12-25T11:51:45.907Z,1007.94
2022-12-25T11:52:45.717Z,1007.94
2022-12-25T11:53:45.603Z,1007.92
2022-12-25T11:54:45.658Z,1007.94
2022-12-25T11:55:45.605Z,1007.95
2022-12-25T11:56:46.115Z,1007.95
2022-12-25T11:57:45.547Z,1007.94
2022-12-25T11:58:45.885Z,1007.96
2022-12-25T11:59:45.657Z,1008.04
2022-12-25T12:00:45.520Z,1008.04
2022-12-25T12:01:45.646Z,1008.06
2022-12-25T12:02:45.263Z,1008.04
2022-12-25T12:03:46.037Z,1008.03
2022-12-25T12:04:46.764Z,1008.02
2022-12-25T12:05:45.485Z,1008.02